Time;durP1;ratioP1;P1;durP2;ratioP2;P2;SDS_P1;SDS_P2;PMS_P1;PMS_P2;Temp;Humidity;BMP_temperature;BMP_pressure;BME280_temperature;BME280_humidity;BME280_pressure;Samples;Min_cycle;Max_cycle;Signal;HPM_P1;HPM_P2
2023/09/01 00:00:03;;;;;;;5.28;2.50;;;;;;;12.94;94.76;101098.91;5047021;28;20043;-85
2023/09/01 00:02:28;;;;;;;4.85;2.30;;;;;;;12.94;94.68;101097.13;5050782;28;20025;-85
2023/09/01 00:04:55;;;;;;;4.10;2.35;;;;;;;12.93;94.80;101105.03;5046740;28;20416;-84
2023/09/01 00:07:20;;;;;;;4.75;2.60;;;;;;;12.93;95.48;101102.44;5050709;28;20086;-85
2023/09/01 00:09:45;;;;;;;5.70;2.47;;;;;;;12.94;95.96;101093.69;5050187;28;20741;-85
2023/09/01 00:12:10;;;;;;;6.00;2.53;;;;;;;12.94;95.12;101081.47;5047916;28;20121;-85
2023/09/01 00:14:36;;;;;;;4.03;2.35;;;;;;;12.95;95.13;101080.56;5047926;28;20366;-85
2023/09/01 00:17:01;;;;;;;4.22;2.20;;;;;;;12.93;95.13;101077.16;5051493;28;20032;-85
2023/09/01 00:19:26;;;;;;;6.45;2.63;;;;;;;12.89;95.21;101068.56;5052475;28;20040;-85
2023/09/01 00:21:53;;;;;;;6.65;2.90;;;;;;;12.87;95.45;101067.75;5051929;28;20025;-85
2023/09/01 00:24:18;;;;;;;5.20;2.45;;;;;;;12.86;95.49;101073.88;5052862;28;20029;-85
2023/09/01 00:26:44;;;;;;;5.35;2.60;;;;;;;12.85;95.53;101080.00;5039234;28;20026;-85
2023/09/01 00:29:09;;;;;;;6.13;2.63;;;;;;;12.83;95.11;101086.19;5049922;28;20472;-85
2023/09/01 00:31:34;;;;;;;5.80;2.83;;;;;;;12.80;94.94;101084.53;5052641;28;20346;-84
2023/09/01 00:33:59;;;;;;;5.25;2.67;;;;;;;12.75;95.88;101084.66;5052630;28;20082;-85
2023/09/01 00:36:25;;;;;;;5.35;2.53;;;;;;;12.75;96.04;101079.44;5051152;28;20025;-85
2023/09/01 00:38:50;;;;;;;5.57;2.83;;;;;;;12.77;95.46;101066.34;5052321;28;20033;-85
2023/09/01 00:41:15;;;;;;;4.40;2.58;;;;;;;12.75;95.95;101070.75;5041449;28;20026;-85
2023/09/01 00:43:40;;;;;;;5.50;2.97;;;;;;;12.74;95.74;101067.28;5044642;28;20024;-85
2023/09/01 00:46:06;;;;;;;5.80;2.72;;;;;;;12.74;95.65;101053.41;5036733;28;20029;-85
2023/09/01 00:48:31;;;;;;;7.00;2.90;;;;;;;12.73;95.85;101055.13;5052075;28;20476;-84
2023/09/01 00:50:56;;;;;;;6.30;2.72;;;;;;;12.72;96.20;101058.66;5049711;28;20029;-84
2023/09/01 00:53:22;;;;;;;5.57;2.70;;;;;;;12.72;96.16;101053.41;5050012;28;20498;-85
2023/09/01 00:55:48;;;;;;;6.80;2.88;;;;;;;12.73;96.33;101059.50;5050302;28;20025;-85
2023/09/01 00:58:13;;;;;;;4.93;2.60;;;;;;;12.72;96.51;101050.81;5051123;28;20053;-85
2023/09/01 01:00:39;;;;;;;7.05;3.10;;;;;;;12.75;96.15;101050.72;5051477;28;20021;-85
2023/09/01 01:03:08;;;;;;;5.85;3.00;;;;;;;12.76;96.04;101048.97;5048135;28;20017;-85
2023/09/01 01:05:53;;;;;;;6.00;3.40;;;;;;;12.77;96.32;101044.59;5050502;28;20056;-85
2023/09/01 01:08:37;;;;;;;6.30;3.28;;;;;;;12.76;96.79;101056.81;5049363;28;20037;-85
2023/09/01 01:11:18;;;;;;;6.60;3.08;;;;;;;12.77;96.62;101057.66;5050184;28;20098;-85
2023/09/01 01:13:52;;;;;;;6.45;3.42;;;;;;;12.75;96.48;101063.78;5048769;28;20036;-85
2023/09/01 01:16:18;;;;;;;6.88;2.97;;;;;;;12.77;96.48;101073.31;5040166;28;20075;-85
2023/09/01 01:18:47;;;;;;;6.60;3.22;;;;;;;12.76;96.67;101069.88;5049266;28;20092;-85
2023/09/01 01:21:21;;;;;;;5.85;2.92;;;;;;;12.77;96.68;101071.56;5050762;28;20091;-85
2023/09/01 01:23:46;;;;;;;7.80;3.17;;;;;;;12.76;96.26;101069.88;5039976;28;20107;-85
2023/09/01 01:26:15;;;;;;;6.18;3.20;;;;;;;12.76;96.36;101075.09;5051351;28;20115;-85
2023/09/01 01:28:40;;;;;;;5.47;3.20;;;;;;;12.75;96.42;101068.16;5050641;28;20013;-85
2023/09/01 01:31:06;;;;;;;7.70;3.20;;;;;;;12.76;96.50;101072.47;5050530;28;20032;-85
2023/09/01 01:33:45;;;;;;;6.22;3.33;;;;;;;12.75;96.49;101073.38;5053419;28;20109;-85
2023/09/01 01:36:19;;;;;;;7.60;3.33;;;;;;;12.73;96.93;101065.56;5051473;28;20040;-85
2023/09/01 01:39:05;;;;;;;6.03;3.38;;;;;;;12.75;96.52;101068.16;5053207;28;20021;-85
2023/09/01 01:41:44;;;;;;;8.27;3.50;;;;;;;12.74;97.07;101074.28;5055004;28;20028;-85
2023/09/01 01:44:13;;;;;;;4.75;3.00;;;;;;;12.75;97.34;101065.53;5041679;28;20369;-85
2023/09/01 01:46:40;;;;;;;6.30;3.45;;;;;;;12.75;97.13;101065.53;5050824;28;20031;-85
2023/09/01 01:49:09;;;;;;;6.90;3.35;;;;;;;12.75;97.23;101066.38;5054162;28;20025;-85
2023/09/01 01:51:35;;;;;;;6.50;3.85;;;;;;;12.75;97.65;101069.00;5052159;28;20027;-85
2023/09/01 01:54:00;;;;;;;10.10;3.58;;;;;;;12.77;98.08;101070.72;5043747;28;20096;-85
2023/09/01 01:56:25;;;;;;;7.47;3.58;;;;;;;12.78;98.09;101067.19;5048775;28;20473;-85
2023/09/01 01:58:51;;;;;;;6.68;3.40;;;;;;;12.79;98.10;101069.78;5047150;28;20048;-85
2023/09/01 02:01:16;;;;;;;7.65;3.58;;;;;;;12.79;98.08;101068.91;5051367;28;20557;-85
2023/09/01 02:03:41;;;;;;;5.70;3.10;;;;;;;12.81;98.06;101067.94;5050324;28;20028;-85
2023/09/01 02:06:06;;;;;;;5.38;3.05;;;;;;;12.82;98.54;101063.59;5046951;28;20032;-85
2023/09/01 02:08:32;;;;;;;6.18;3.40;;;;;;;12.84;98.45;101064.41;5054447;28;20037;-85
2023/09/01 02:10:57;;;;;;;5.63;3.17;;;;;;;12.86;98.47;101062.59;5053272;28;20562;-85
2023/09/01 02:13:22;;;;;;;6.70;3.50;;;;;;;12.88;98.59;101063.41;5052938;28;20033;-85
2023/09/01 02:15:54;;;;;;;6.60;3.63;;;;;;;12.89;99.01;101065.97;5053716;28;20036;-85
2023/09/01 02:18:20;;;;;;;6.22;3.30;;;;;;;12.93;98.95;101063.25;5050649;28;20376;-85
2023/09/01 02:20:46;;;;;;;7.47;3.33;;;;;;;12.94;98.91;101057.13;5048670;28;20020;-85
2023/09/01 02:23:16;;;;;;;5.97;3.47;;;;;;;12.96;98.58;101060.56;5053569;28;20094;-85
2023/09/01 02:25:42;;;;;;;5.30;3.53;;;;;;;12.97;98.50;101057.03;5050907;28;20059;-85
2023/09/01 02:28:07;;;;;;;8.35;3.58;;;;;;;12.96;98.35;101056.16;5051710;28;20500;-85
2023/09/01 02:30:32;;;;;;;7.05;3.50;;;;;;;12.97;98.75;101057.88;5053117;28;20033;-85
2023/09/01 02:32:57;;;;;;;6.32;3.53;;;;;;;12.97;98.56;101057.88;5054380;28;20474;-85
2023/09/01 02:35:23;;;;;;;6.97;3.22;;;;;;;12.98;98.69;101054.38;5051153;28;20102;-85
2023/09/01 02:37:49;;;;;;;5.55;3.70;;;;;;;12.98;98.97;101059.59;5049905;28;20047;-85
2023/09/01 02:40:15;;;;;;;6.18;3.70;;;;;;;12.98;98.82;101061.38;5051989;28;20127;-84
2023/09/01 02:42:40;;;;;;;9.63;3.83;;;;;;;12.97;98.83;101064.88;5052700;28;20112;-85
2023/09/01 02:45:07;;;;;;;5.63;3.60;;;;;;;12.98;98.88;101063.97;5052986;28;20485;-85
2023/09/01 02:47:34;;;;;;;5.68;3.42;;;;;;;12.98;99.10;101048.31;5050037;28;20086;-85
2023/09/01 02:50:01;;;;;;;5.93;3.72;;;;;;;12.99;98.90;101047.38;5053190;28;20485;-85
2023/09/01 02:52:27;;;;;;;8.20;3.85;;;;;;;12.98;99.09;101048.31;5051218;28;20082;-85
2023/09/01 02:54:52;;;;;;;5.93;3.60;;;;;;;12.99;98.94;101053.47;5052492;28;20033;-85
2023/09/01 02:57:17;;;;;;;7.38;3.72;;;;;;;13.01;99.00;101050.78;5050734;28;20035;-85
2023/09/01 02:59:43;;;;;;;6.13;3.60;;;;;;;13.02;99.02;101052.50;5053463;28;20041;-85
2023/09/01 03:02:08;;;;;;;7.60;4.03;;;;;;;13.02;99.04;101052.50;5050948;28;20091;-85
2023/09/01 03:04:33;;;;;;;6.93;4.30;;;;;;;13.03;99.09;101052.47;5049637;28;20055;-85
2023/09/01 03:06:59;;;;;;;8.60;3.70;;;;;;;13.04;99.21;101048.94;5047796;28;20078;-85
2023/09/01 03:09:24;;;;;;;7.13;3.72;;;;;;;13.05;99.18;101052.41;5051583;28;20025;-85
2023/09/01 03:11:49;;;;;;;6.40;3.60;;;;;;;13.05;99.38;101041.97;5049706;28;20020;-85
2023/09/01 03:14:14;;;;;;;7.15;3.92;;;;;;;13.07;99.50;101048.00;5049050;28;20030;-85
2023/09/01 03:16:41;;;;;;;7.20;4.28;;;;;;;13.06;99.26;101051.50;5044105;28;20086;-85
2023/09/01 03:19:07;;;;;;;8.48;3.70;;;;;;;13.08;99.59;101044.47;5050452;28;20112;-85
2023/09/01 03:21:32;;;;;;;5.90;3.75;;;;;;;13.08;99.48;101027.94;5049005;28;20055;-85
2023/09/01 03:23:58;;;;;;;6.15;3.72;;;;;;;13.09;99.28;101034.88;5052046;28;20107;-85
2023/09/01 03:26:23;;;;;;;6.18;3.67;;;;;;;13.08;99.21;101027.94;5050039;28;20029;-84
2023/09/01 03:28:49;;;;;;;6.20;3.85;;;;;;;13.08;99.44;101043.59;5051992;28;20115;-85
2023/09/01 03:31:14;;;;;;;8.30;3.88;;;;;;;13.08;99.83;101049.69;5052543;28;20033;-85
2023/09/01 03:33:41;;;;;;;6.38;3.75;;;;;;;13.11;99.93;101047.00;5052209;28;20375;-85
2023/09/01 03:36:08;;;;;;;6.30;3.88;;;;;;;13.14;99.53;101035.56;5051545;28;20033;-85
2023/09/01 03:38:34;;;;;;;6.50;3.90;;;;;;;13.14;99.81;101032.97;5049906;28;20059;-85
2023/09/01 03:41:04;;;;;;;5.55;3.53;;;;;;;13.15;99.89;101032.06;5051368;28;20056;-85
2023/09/01 03:43:29;;;;;;;7.90;4.10;;;;;;;13.14;99.92;101036.44;5052598;28;20028;-85
2023/09/01 03:45:55;;;;;;;5.90;3.75;;;;;;;13.14;99.83;101039.06;5046523;28;20102;-85
2023/09/01 03:48:20;;;;;;;6.03;3.78;;;;;;;13.16;99.87;101037.22;5052350;28;20033;-85
2023/09/01 03:51:16;;;;;;;7.10;4.22;;;;;;;13.18;99.98;101021.50;5052926;28;20480;-85
2023/09/01 03:53:42;;;;;;;5.75;3.55;;;;;;;13.19;100.00;101020.59;5053179;28;20101;-85
2023/09/01 03:56:08;;;;;;;7.63;3.97;;;;;;;13.18;100.00;101019.75;5050760;28;20492;-85
2023/09/01 03:58:34;;;;;;;7.65;3.90;;;;;;;13.20;99.92;101017.09;5052787;28;20049;-85
2023/09/01 04:00:59;;;;;;;6.82;3.90;;;;;;;13.19;100.00;101018.00;5052953;28;20108;-84
2023/09/01 04:03:24;;;;;;;5.32;3.70;;;;;;;13.21;100.00;101024.88;5054071;28;20032;-85
2023/09/01 04:05:55;;;;;;;6.10;3.97;;;;;;;13.21;100.00;101019.63;5051657;28;20025;-85
2023/09/01 04:08:21;;;;;;;8.20;4.18;;;;;;;13.22;100.00;101020.50;5051699;28;20029;-85
2023/09/01 04:10:46;;;;;;;6.30;4.00;;;;;;;13.23;100.00;101016.13;5052362;28;20074;-85
2023/09/01 04:13:11;;;;;;;6.03;3.67;;;;;;;13.23;100.00;101010.91;5051909;28;20029;-85
2023/09/01 04:15:36;;;;;;;6.45;4.07;;;;;;;13.25;100.00;101009.09;5051427;28;20035;-85
2023/09/01 04:18:02;;;;;;;7.47;3.85;;;;;;;13.25;100.00;101009.94;5052344;28;20333;-85
2023/09/01 04:20:27;;;;;;;8.48;3.97;;;;;;;13.24;100.00;101003.00;5051306;28;20029;-85
2023/09/01 04:22:52;;;;;;;6.82;3.90;;;;;;;13.24;99.94;101010.00;5049231;28;20061;-85
2023/09/01 04:25:18;;;;;;;6.05;3.80;;;;;;;13.24;100.00;101010.00;5051641;28;20491;-85
2023/09/01 04:27:43;;;;;;;7.40;3.83;;;;;;;13.23;100.00;101014.38;5051874;28;20073;-85
2023/09/01 04:30:08;;;;;;;7.43;3.78;;;;;;;13.24;100.00;101023.06;5050813;28;20029;-85
2023/09/01 04:32:34;;;;;;;7.38;4.18;;;;;;;13.26;100.00;101016.03;5044939;28;21746;-85
2023/09/01 04:35:00;;;;;;;7.55;3.65;;;;;;;13.26;100.00;101016.03;5049373;28;20040;-85
2023/09/01 04:37:25;;;;;;;7.75;3.80;;;;;;;13.28;100.00;101019.44;5048088;28;20017;-85
2023/09/01 04:39:50;;;;;;;6.78;3.92;;;;;;;13.28;100.00;101011.59;5050294;28;20039;-84
2023/09/01 04:42:15;;;;;;;5.40;3.72;;;;;;;13.28;100.00;101014.22;5051150;28;20021;-85
2023/09/01 04:44:41;;;;;;;7.28;3.75;;;;;;;13.28;99.90;101016.81;5050227;28;20029;-85
2023/09/01 04:47:06;;;;;;;7.25;4.05;;;;;;;13.28;100.00;101015.06;5046868;28;20033;-85
2023/09/01 04:49:31;;;;;;;7.80;3.75;;;;;;;13.29;100.00;101023.75;5045217;28;20029;-85
2023/09/01 04:51:57;;;;;;;7.38;3.70;;;;;;;13.29;100.00;101029.00;5044422;28;20037;-85
2023/09/01 04:54:22;;;;;;;6.97;3.60;;;;;;;13.30;100.00;101033.31;5045258;28;20362;-85
2023/09/01 04:56:48;;;;;;;7.50;3.70;;;;;;;13.30;100.00;101035.91;5044201;28;20028;-86
2023/09/01 04:59:14;;;;;;;5.95;3.70;;;;;;;13.32;100.00;101028.88;5047536;28;20127;-87
2023/09/01 05:01:40;;;;;;;5.85;3.65;;;;;;;13.31;100.00;101032.41;5046937;28;20107;-87
2023/09/01 05:04:07;;;;;;;6.15;3.67;;;;;;;13.33;100.00;101031.44;5048752;28;20040;-87
2023/09/01 05:06:33;;;;;;;7.93;3.85;;;;;;;13.34;100.00;101029.66;5045178;28;20419;-87
2023/09/01 05:08:58;;;;;;;5.70;3.40;;;;;;;13.35;100.00;101013.09;5046727;28;20082;-87
2023/09/01 05:11:23;;;;;;;6.10;3.65;;;;;;;13.37;100.00;101013.88;5036530;28;20029;-87
2023/09/01 05:13:48;;;;;;;5.65;3.78;;;;;;;13.38;100.00;101012.13;5050825;28;20047;-87
2023/09/01 05:16:14;;;;;;;5.55;3.50;;;;;;;13.36;100.00;101010.44;5051259;28;20034;-87
2023/09/01 05:18:39;;;;;;;7.10;3.60;;;;;;;13.39;100.00;101012.06;5049739;28;20435;-85
2023/09/01 05:21:04;;;;;;;8.70;4.03;;;;;;;13.39;100.00;101017.31;5049488;28;20025;-85
2023/09/01 05:23:32;;;;;;;6.78;3.90;;;;;;;13.40;100.00;101024.28;5049943;28;20029;-85
2023/09/01 05:25:57;;;;;;;7.32;3.78;;;;;;;13.41;100.00;101020.75;5050283;28;20400;-85
2023/09/01 05:28:22;;;;;;;5.32;3.58;;;;;;;13.42;100.00;101022.47;5049865;28;20037;-85
2023/09/01 05:30:48;;;;;;;6.28;3.60;;;;;;;13.44;100.00;101025.88;5049750;28;20080;-85
2023/09/01 05:33:13;;;;;;;5.82;3.65;;;;;;;13.45;100.00;101026.72;5052850;28;20039;-85
2023/09/01 05:35:38;;;;;;;6.55;3.83;;;;;;;13.47;100.00;101028.38;5052889;28;20060;-85
2023/09/01 05:38:03;;;;;;;8.18;3.92;;;;;;;13.48;100.00;101024.88;5055505;28;20033;-85
2023/09/01 05:40:29;;;;;;;7.45;3.95;;;;;;;13.53;100.00;101023.84;5055271;28;20103;-85
2023/09/01 05:42:54;;;;;;;5.57;3.47;;;;;;;13.53;100.00;101023.84;5055641;28;20025;-85
2023/09/01 05:45:19;;;;;;;5.03;3.50;;;;;;;13.56;100.00;101031.56;5053549;28;20377;-85
2023/09/01 05:47:44;;;;;;;5.28;3.55;;;;;;;13.57;100.00;101026.31;5053947;28;20099;-85
2023/09/01 05:50:10;;;;;;;7.03;3.70;;;;;;;13.59;100.00;101024.47;5055306;28;20437;-85
2023/09/01 05:52:35;;;;;;;6.53;3.50;;;;;;;13.60;100.00;101026.19;5055552;28;20033;-85
2023/09/01 05:55:00;;;;;;;6.80;3.47;;;;;;;13.62;100.00;101039.22;5054771;28;20033;-85
2023/09/01 05:57:26;;;;;;;6.38;3.58;;;;;;;13.65;100.00;101036.50;5054803;28;20159;-85
2023/09/01 05:59:51;;;;;;;5.88;3.45;;;;;;;13.66;100.00;101028.59;5049514;28;20036;-85
2023/09/01 06:02:16;;;;;;;7.95;3.58;;;;;;;13.68;100.00;101025.91;5052563;28;20019;-85
2023/09/01 06:04:41;;;;;;;5.65;3.42;;;;;;;13.70;100.00;101021.47;5042383;28;20029;-84
2023/09/01 06:07:08;;;;;;;5.18;3.58;;;;;;;13.73;100.00;101023.16;5054256;28;20025;-85
2023/09/01 06:09:34;;;;;;;5.47;3.38;;;;;;;13.76;100.00;101023.88;5049999;28;20395;-85
2023/09/01 06:12:00;;;;;;;6.07;3.40;;;;;;;13.79;100.00;101026.38;5048203;28;20037;-85
2023/09/01 06:14:25;;;;;;;6.05;3.25;;;;;;;13.83;100.00;101018.44;5049149;28;20037;-85
2023/09/01 06:16:51;;;;;;;6.28;3.80;;;;;;;13.86;100.00;101021.78;5049749;28;20484;-85
2023/09/01 06:19:17;;;;;;;7.93;3.83;;;;;;;13.89;100.00;101026.03;5046994;28;20028;-85
2023/09/01 06:21:43;;;;;;;5.90;3.88;;;;;;;13.93;100.00;101027.63;5048135;28;20025;-85
2023/09/01 06:24:08;;;;;;;7.18;3.70;;;;;;;13.97;100.00;101029.22;5049598;28;20028;-85
2023/09/01 06:26:33;;;;;;;7.18;3.70;;;;;;;14.00;100.00;101029.13;5049468;28;20171;-85
2023/09/01 06:28:58;;;;;;;5.22;3.60;;;;;;;14.02;100.00;101027.28;5049607;28;20491;-85
2023/09/01 06:31:24;;;;;;;6.10;3.55;;;;;;;14.04;100.00;101027.25;5049494;28;20492;-85
2023/09/01 06:33:49;;;;;;;6.78;3.45;;;;;;;14.06;100.00;101031.50;5048212;28;20215;-85
2023/09/01 06:36:14;;;;;;;6.40;3.50;;;;;;;14.08;100.00;101027.06;5049954;28;20384;-85
2023/09/01 06:38:43;;;;;;;4.75;3.60;;;;;;;14.09;100.00;101033.16;5049998;28;20492;-85
2023/09/01 06:41:09;;;;;;;5.53;3.45;;;;;;;14.11;100.00;101033.94;5048130;28;20055;-85
2023/09/01 06:43:34;;;;;;;6.05;3.90;;;;;;;14.14;100.00;101031.22;5049988;28;20480;-85
2023/09/01 06:45:59;;;;;;;6.47;4.00;;;;;;;14.18;100.00;101034.56;5048426;28;20029;-85
2023/09/01 06:48:25;;;;;;;4.93;3.53;;;;;;;14.21;100.00;101031.81;5053435;28;20103;-85
2023/09/01 06:50:51;;;;;;;5.78;3.95;;;;;;;14.23;100.00;101030.00;5055070;28;20380;-85
2023/09/01 06:53:16;;;;;;;7.22;3.78;;;;;;;14.26;100.00;101032.50;5053874;28;20025;-85
2023/09/01 06:55:41;;;;;;;4.80;3.55;;;;;;;14.26;100.00;101035.13;5052378;28;20067;-85
2023/09/01 06:58:07;;;;;;;5.85;3.95;;;;;;;14.29;100.00;101042.88;5053027;28;20055;-85
2023/09/01 07:00:32;;;;;;;5.75;3.78;;;;;;;14.32;100.00;101048.00;5052182;28;20021;-85
2023/09/01 07:02:58;;;;;;;6.03;3.53;;;;;;;14.35;100.00;101052.25;5053006;28;20108;-85
2023/09/01 07:05:23;;;;;;;6.00;3.80;;;;;;;14.38;100.00;101049.50;5054185;28;20031;-85
2023/09/01 07:07:50;;;;;;;6.28;3.75;;;;;;;14.39;100.00;101035.53;5052486;28;20028;-84
2023/09/01 07:10:16;;;;;;;8.70;4.00;;;;;;;14.41;100.00;101037.16;5056169;28;20456;-85
2023/09/01 07:12:41;;;;;;;7.35;3.83;;;;;;;14.45;100.00;101034.41;5060397;28;20044;-85
2023/09/01 07:15:08;;;;;;;6.70;4.03;;;;;;;14.47;100.00;101027.38;5053974;28;20032;-87
2023/09/01 07:17:33;;;;;;;6.78;4.15;;;;;;;14.49;100.00;101017.69;5051382;28;20025;-87
2023/09/01 07:19:58;;;;;;;7.20;4.10;;;;;;;14.51;100.00;101015.88;5052306;28;20105;-87
2023/09/01 07:22:24;;;;;;;7.15;3.95;;;;;;;14.51;100.00;101015.88;5052638;28;20448;-90
2023/09/01 07:24:49;;;;;;;5.93;4.05;;;;;;;14.52;100.00;101018.41;5052813;28;20037;-88
2023/09/01 07:27:14;;;;;;;5.97;4.00;;;;;;;14.53;100.00;101014.88;5054451;28;20533;-88
2023/09/01 07:29:40;;;;;;;5.53;4.13;;;;;;;14.55;100.00;101015.69;5057792;28;20031;-90
2023/09/01 07:32:05;;;;;;;7.07;3.95;;;;;;;14.56;100.00;101021.75;5050604;28;20099;-89
2023/09/01 07:34:30;;;;;;;5.93;4.03;;;;;;;14.57;100.00;101020.84;5056274;28;20151;-89
2023/09/01 07:36:55;;;;;;;5.93;3.78;;;;;;;14.58;100.00;101022.53;5052873;28;20040;-89
2023/09/01 07:39:21;;;;;;;5.05;3.70;;;;;;;14.59;100.00;101020.81;5046994;28;20048;-89
2023/09/01 07:41:46;;;;;;;7.78;4.10;;;;;;;14.59;100.00;101021.63;5049449;28;20066;-90
2023/09/01 07:44:16;;;;;;;8.43;4.15;;;;;;;14.60;100.00;101023.34;5050509;28;20025;-89
2023/09/01 07:46:45;;;;;;;5.35;3.80;;;;;;;14.61;100.00;101014.56;5049889;28;20071;-89
2023/09/01 07:49:10;;;;;;;6.28;3.83;;;;;;;14.61;100.00;101014.56;5046229;28;20032;-88
2023/09/01 07:51:35;;;;;;;6.45;4.28;;;;;;;14.62;100.00;101016.28;5050045;28;20029;-88
2023/09/01 07:54:00;;;;;;;6.20;3.83;;;;;;;14.63;100.00;101010.13;5051513;28;20033;-88
2023/09/01 07:56:26;;;;;;;7.55;3.88;;;;;;;14.63;100.00;101012.75;5051725;28;20046;-90
2023/09/01 07:58:51;;;;;;;5.82;3.92;;;;;;;14.66;100.00;101007.41;5050811;28;20115;-90
2023/09/01 08:01:16;;;;;;;7.35;3.92;;;;;;;14.67;100.00;101021.31;5053367;28;20073;-91
2023/09/01 08:03:42;;;;;;;6.13;4.25;;;;;;;14.66;100.00;101017.88;5050023;28;20501;-89
2023/09/01 08:06:07;;;;;;;6.10;3.65;;;;;;;14.68;100.00;101017.84;5050256;28;20078;-90
2023/09/01 08:08:32;;;;;;;6.70;3.97;;;;;;;14.70;100.00;101029.94;5050404;28;20496;-87
2023/09/01 08:10:57;;;;;;;6.30;3.60;;;;;;;14.71;100.00;101025.56;5046910;28;20021;-85
2023/09/01 08:13:23;;;;;;;6.30;4.00;;;;;;;14.71;100.00;101031.66;5050104;28;20021;-86
2023/09/01 08:15:49;;;;;;;5.90;3.88;;;;;;;14.74;100.00;101029.81;5048020;28;20099;-86
2023/09/01 08:18:14;;;;;;;5.78;3.70;;;;;;;14.75;100.00;101036.75;5047778;28;20717;-86
2023/09/01 08:20:40;;;;;;;5.53;4.18;;;;;;;14.78;100.00;101041.88;5046840;28;20051;-85
2023/09/01 08:23:05;;;;;;;7.80;4.22;;;;;;;14.77;100.00;101045.41;5052576;28;20021;-85
2023/09/01 08:25:32;;;;;;;5.93;4.15;;;;;;;14.79;100.00;101048.84;5053595;28;20035;-86
2023/09/01 08:27:58;;;;;;;5.65;4.05;;;;;;;14.80;100.00;101047.91;5052877;28;20051;-87
2023/09/01 08:30:24;;;;;;;6.25;4.43;;;;;;;14.81;100.00;101047.00;5045510;28;20024;-87
2023/09/01 08:32:49;;;;;;;6.40;4.22;;;;;;;14.82;100.00;101053.94;5045724;28;20512;-88
2023/09/01 08:35:14;;;;;;;5.18;4.07;;;;;;;14.82;100.00;101057.41;5045236;28;20051;-86
2023/09/01 08:37:40;;;;;;;6.93;4.00;;;;;;;14.83;100.00;101056.50;5041725;28;20040;-88
2023/09/01 08:40:07;;;;;;;7.70;4.70;;;;;;;14.85;100.00;101053.84;5047823;28;20026;-95
2023/09/01 08:42:33;;;;;;;7.85;4.53;;;;;;;14.85;100.00;101056.44;5049682;28;20032;-89
2023/09/01 08:45:00;;;;;;;6.13;4.28;;;;;;;14.86;100.00;101060.75;5051102;28;20051;-93
2023/09/01 08:47:32;;;;;;;5.38;4.03;;;;;;;14.86;100.00;101065.97;5055885;28;21115;-92
2023/09/01 08:49:58;;;;;;;5.53;4.50;;;;;;;14.87;100.00;101070.31;5051671;28;20056;-93
2023/09/01 08:52:24;;;;;;;6.82;4.65;;;;;;;14.86;100.00;101061.63;5053646;28;20035;-93
2023/09/01 08:54:49;;;;;;;6.63;4.22;;;;;;;14.85;100.00;101059.91;5050739;28;20029;-87
2023/09/01 08:57:14;;;;;;;6.40;4.43;;;;;;;14.87;100.00;101065.06;5049349;28;20040;-86
2023/09/01 09:05:56;;;;;;;7.25;4.40;;;;;;;14.88;100.00;101074.63;5050620;22;20174;-88
2023/09/01 09:08:22;;;;;;;7.03;4.25;;;;;;;14.87;100.00;101076.41;5047400;28;20555;-90
2023/09/01 09:10:47;;;;;;;5.75;4.50;;;;;;;14.89;100.00;101078.13;5030830;28;20044;-88
2023/09/01 09:13:27;;;;;;;5.97;4.25;;;;;;;14.90;100.00;101071.97;5026514;28;20041;-88
2023/09/01 09:16:08;;;;;;;7.25;4.50;;;;;;;14.90;100.00;101077.22;5028872;28;20045;-86
2023/09/01 09:18:34;;;;;;;5.57;4.10;;;;;;;14.91;100.00;101079.75;5029315;28;20031;-86
2023/09/01 09:20:59;;;;;;;6.78;4.28;;;;;;;14.92;100.00;101081.47;5023903;28;20033;-87
2023/09/01 09:23:45;;;;;;;7.05;4.55;;;;;;;14.90;100.00;101078.06;5029353;28;20025;-90
2023/09/01 09:26:11;;;;;;;5.93;4.40;;;;;;;14.91;100.00;101078.91;5031268;28;20032;-95
2023/09/01 09:28:36;;;;;;;7.78;5.13;;;;;;;14.92;100.00;101080.63;5033215;28;20021;-96
2023/09/01 09:31:02;;;;;;;7.28;4.78;;;;;;;14.91;100.00;101079.75;5037245;28;20117;-90
2023/09/01 09:33:33;;;;;;;6.03;4.75;;;;;;;14.93;100.00;101083.19;5035796;28;20092;-89
2023/09/01 09:35:59;;;;;;;5.70;4.60;;;;;;;14.95;100.00;101076.13;5032448;28;20444;-88
2023/09/01 09:38:44;;;;;;;7.35;4.93;;;;;;;14.96;100.00;101090.91;5032341;28;20443;-87
2023/09/01 09:41:09;;;;;;;5.20;4.53;;;;;;;14.98;100.00;101089.09;5031591;28;20163;-87
2023/09/01 09:43:46;;;;;;;7.30;4.55;;;;;;;15.01;100.00;101086.34;5028530;28;20108;-87
2023/09/01 09:46:12;;;;;;;6.65;4.68;;;;;;;15.05;100.00;101088.81;5030022;28;20512;-87
2023/09/01 09:48:39;;;;;;;6.55;4.70;;;;;;;15.08;100.00;101086.09;5027333;28;20041;-86
2023/09/01 09:51:08;;;;;;;5.55;4.63;;;;;;;15.11;100.00;101091.22;5026669;28;20473;-86
2023/09/01 09:53:38;;;;;;;5.40;4.60;;;;;;;15.13;100.00;101084.97;5032325;28;20029;-86
2023/09/01 09:56:30;;;;;;;6.10;4.47;;;;;;;15.15;100.00;101090.19;5032244;28;20056;-93
2023/09/01 09:58:57;;;;;;;4.80;4.00;;;;;;;15.19;100.00;101089.13;5026689;28;20072;-86
2023/09/01 10:01:26;;;;;;;5.43;4.07;;;;;;;15.21;100.00;101094.31;5028263;28;20042;-87
2023/09/01 10:03:53;;;;;;;6.65;4.43;;;;;;;15.23;100.00;101095.94;5028163;28;20018;-87
2023/09/01 10:06:19;;;;;;;6.47;4.25;;;;;;;15.24;100.00;101097.63;5028189;28;20055;-87
2023/09/01 10:08:45;;;;;;;5.50;4.30;;;;;;;15.25;100.00;101094.09;5029371;28;20424;-95
2023/09/01 10:11:13;;;;;;;5.50;4.40;;;;;;;15.28;100.00;101093.16;5009477;28;20392;-87
2023/09/01 10:13:39;;;;;;;5.30;3.42;;;;;;;15.30;100.00;101096.53;5029629;28;20028;-91
2023/09/01 10:16:05;;;;;;;5.50;3.90;;;;;;;15.33;100.00;101093.78;5028716;28;20029;-87
2023/09/01 10:18:33;;;;;;;4.68;3.78;;;;;;;15.36;100.00;101090.22;5029249;28;20036;-87
2023/09/01 10:20:59;;;;;;;5.25;3.83;;;;;;;15.38;100.00;101086.59;5032599;28;20522;-95
2023/09/01 10:23:26;;;;;;;4.97;3.88;;;;;;;15.42;100.00;101084.69;5027719;28;20394;-92
2023/09/01 10:26:15;;;;;;;4.40;3.83;;;;;;;15.44;100.00;101075.00;5027076;28;20033;-92
2023/09/01 10:28:55;;;;;;;4.30;3.60;;;;;;;15.47;100.00;101077.47;5027805;28;20064;-91
2023/09/01 10:31:21;;;;;;;4.45;3.72;;;;;;;15.48;100.00;101071.31;5029545;28;20044;-88
2023/09/01 10:33:46;;;;;;;4.32;3.50;;;;;;;15.51;100.00;101076.44;5010553;28;20037;-88
2023/09/01 10:36:13;;;;;;;4.50;3.65;;;;;;;15.52;100.00;101078.16;5026464;28;20045;-88
2023/09/01 10:38:40;;;;;;;4.57;3.42;;;;;;;15.55;100.00;101080.63;5008419;28;20430;-88
2023/09/01 10:41:06;;;;;;;4.40;3.40;;;;;;;15.56;100.00;101074.47;5009030;28;20030;-87
2023/09/01 10:43:31;;;;;;;3.95;3.38;;;;;;;15.58;100.00;101083.13;5026683;28;20029;-88
2023/09/01 10:46:16;;;;;;;3.80;3.10;;;;;;;15.60;100.00;101083.06;5029225;28;20099;-88
2023/09/01 10:49:05;;;;;;;3.78;3.10;;;;;;;15.61;100.00;101083.00;5027304;28;20556;-87
2023/09/01 10:51:34;;;;;;;3.42;2.80;;;;;;;15.61;100.00;101084.78;5023142;28;20445;-91
2023/09/01 10:54:19;;;;;;;4.03;3.35;;;;;;;15.62;100.00;101087.31;5031013;28;20025;-89
2023/09/01 10:56:56;;;;;;;3.55;2.90;;;;;;;15.65;100.00;101095.97;5025393;28;20032;-90
2023/09/01 10:59:29;;;;;;;3.58;3.15;;;;;;;15.68;100.00;101095.84;5026309;28;20095;-90
2023/09/01 11:01:54;;;;;;;5.35;3.22;;;;;;;15.71;100.00;101091.31;5027906;28;20028;-88
2023/09/01 11:04:19;;;;;;;3.90;3.42;;;;;;;15.74;100.00;101091.19;5029095;28;20045;-88
2023/09/01 11:06:57;;;;;;;4.40;3.35;;;;;;;15.79;100.00;101098.84;5025568;28;20037;-87
2023/09/01 11:09:24;;;;;;;3.50;2.95;;;;;;;15.86;100.00;101104.69;5029024;28;20041;-92
2023/09/01 11:11:50;;;;;;;3.35;2.88;;;;;;;15.89;100.00;101102.78;5028379;28;20040;-91
2023/09/01 11:14:20;;;;;;;3.50;3.05;;;;;;;15.97;100.00;101101.63;5019486;28;20104;-88
2023/09/01 11:16:45;;;;;;;3.55;3.05;;;;;;;16.05;100.00;101104.75;5002906;28;21944;-87
2023/09/01 11:19:10;;;;;;;3.15;2.80;;;;;;;16.13;100.00;101102.63;5017288;28;20143;-87
2023/09/01 11:21:36;;;;;;;3.47;2.97;;;;;;;16.20;100.00;101103.19;5016178;28;20037;-87
2023/09/01 11:24:03;;;;;;;3.40;2.80;;;;;;;16.24;100.00;101100.38;5016321;28;20038;-87